Time;durP1;ratioP1;P1;durP2;ratioP2;P2;SDS_P1;SDS_P2;PMS_P1;PMS_P2;Temp;Humidity;BMP_temperature;BMP_pressure;BME280_temperature;BME280_humidity;BME280_pressure;Samples;Min_cycle;Max_cycle;Signal;HPM_P1;HPM_P2
2021/08/29 00:02:11;;;;;;;7.40;2.90;;;;;;;;;;5039398;28;20469;-83
2021/08/29 00:04:37;;;;;;;6.65;3.00;;;;;;;;;;5054619;28;20469;-83
2021/08/29 00:07:02;;;;;;;7.05;3.35;;;;;;;;;;5021582;28;20485;-83
2021/08/29 00:09:28;;;;;;;6.63;2.88;;;;;;;;;;5020765;28;20077;-83
2021/08/29 00:11:54;;;;;;;7.93;2.65;;;;;;;;;;5041146;28;20439;-84
2021/08/29 00:14:19;;;;;;;6.63;2.90;;;;;;;;;;5054965;28;20430;-84
2021/08/29 00:16:45;;;;;;;8.45;2.80;;;;;;;;;;5037957;28;20460;-84
2021/08/29 00:19:10;;;;;;;8.98;3.33;;;;;;;;;;5020941;28;20029;-84
2021/08/29 00:21:35;;;;;;;6.70;2.90;;;;;;;;;;5037946;28;20144;-83
2021/08/29 00:24:01;;;;;;;7.57;3.20;;;;;;;;;;5053772;28;20036;-83
2021/08/29 00:26:26;;;;;;;6.57;2.83;;;;;;;;;;5021093;28;20040;-83
2021/08/29 00:28:53;;;;;;;6.53;2.90;;;;;;;;;;5037748;28;20033;-83
2021/08/29 00:31:18;;;;;;;5.90;2.85;;;;;;;;;;5037221;28;20119;-83
2021/08/29 00:33:43;;;;;;;5.47;2.92;;;;;;;;;;5037854;28;20094;-84
2021/08/29 00:36:09;;;;;;;6.78;2.97;;;;;;;;;;5037761;28;20033;-83
2021/08/29 00:38:34;;;;;;;7.90;3.08;;;;;;;;;;5037599;28;20039;-83
2021/08/29 00:41:00;;;;;;;6.05;2.83;;;;;;;;;;5054126;28;20017;-83
2021/08/29 00:43:25;;;;;;;6.80;3.15;;;;;;;;;;5054045;28;20036;-83
2021/08/29 00:45:52;;;;;;;10.32;3.03;;;;;;;;;;5037707;28;20037;-83
2021/08/29 00:48:17;;;;;;;8.82;3.17;;;;;;;;;;5038252;28;20119;-83
2021/08/29 00:50:47;;;;;;;7.20;3.00;;;;;;;;;;5017146;28;20073;-84
2021/08/29 00:53:19;;;;;;;7.88;3.10;;;;;;;;;;5044748;28;20094;-84
2021/08/29 00:55:46;;;;;;;7.50;3.73;;;;;;;;;;5054242;28;20037;-83
2021/08/29 00:58:11;;;;;;;8.38;3.40;;;;;;;;;;5039803;28;20067;-83
2021/08/29 01:00:41;;;;;;;6.70;2.67;;;;;;;;;;5024841;28;20025;-84
2021/08/29 01:03:19;;;;;;;6.93;2.67;;;;;;;;;;5057437;28;20480;-84
2021/08/29 01:05:51;;;;;;;6.72;2.75;;;;;;;;;;5059628;28;20480;-84
2021/08/29 01:08:17;;;;;;;5.45;2.75;;;;;;;;;;5056610;28;20484;-84
2021/08/29 01:10:57;;;;;;;6.03;2.80;;;;;;;;;;5065044;28;20545;-84
2021/08/29 01:13:29;;;;;;;7.43;2.97;;;;;;;;;;5042949;28;20021;-84
2021/08/29 01:16:02;;;;;;;6.65;2.80;;;;;;;;;;5057258;28;20032;-84
2021/08/29 01:18:28;;;;;;;;;;;;;;;;;;5057969;28;20029;-83
2021/08/29 01:21:03;;;;;;;6.18;2.70;;;;;;;;;;5057615;28;20422;-83
2021/08/29 01:23:31;;;;;;;6.38;2.53;;;;;;;;;;5044299;28;20025;-83
2021/08/29 01:26:02;;;;;;;6.25;2.83;;;;;;;;;;5057215;28;20052;-84
2021/08/29 01:28:57;;;;;;;8.27;2.78;;;;;;;;;;5047881;28;20047;-84
2021/08/29 01:31:25;;;;;;;6.05;2.90;;;;;;;;;;5056701;28;20029;-84
2021/08/29 01:33:52;;;;;;;7.57;3.10;;;;;;;;;;5056740;28;20484;-84
2021/08/29 01:36:18;;;;;;;9.07;3.35;;;;;;;;;;5040005;28;20061;-84
2021/08/29 01:38:45;;;;;;;6.80;2.90;;;;;;;;;;5039864;28;20123;-84
2021/08/29 01:41:12;;;;;;;6.28;2.90;;;;;;;;;;5039393;28;20392;-83
2021/08/29 01:43:39;;;;;;;7.28;2.92;;;;;;;;;;5039735;28;20480;-83
2021/08/29 01:46:06;;;;;;;5.72;2.85;;;;;;;;;;5023295;28;20025;-83
2021/08/29 01:48:32;;;;;;;7.55;3.00;;;;;;;;;;5056359;28;20025;-83
2021/08/29 01:50:57;;;;;;;7.82;3.22;;;;;;;;;;5056605;28;20072;-83
2021/08/29 01:53:23;;;;;;;6.68;3.00;;;;;;;;;;5056139;28;20024;-83
2021/08/29 01:55:49;;;;;;;6.72;3.00;;;;;;;;;;5039655;28;20029;-83
2021/08/29 01:58:16;;;;;;;7.28;3.40;;;;;;;;;;5040168;28;20025;-83
2021/08/29 02:00:52;;;;;;;8.63;3.45;;;;;;;;;;5056419;28;20017;-83
2021/08/29 02:03:19;;;;;;;7.13;2.85;;;;;;;;;;5056132;28;20120;-83
2021/08/29 02:05:46;;;;;;;5.88;2.60;;;;;;;;;;5057134;28;20033;-84
2021/08/29 02:08:15;;;;;;;7.80;2.88;;;;;;;;;;5023983;28;20029;-84
2021/08/29 02:10:41;;;;;;;6.03;2.95;;;;;;;;;;5055823;28;20033;-84
2021/08/29 02:13:09;;;;;;;9.20;3.17;;;;;;;;;;5056969;28;20055;-84
2021/08/29 02:15:39;;;;;;;7.88;2.90;;;;;;;;;;5056005;28;20025;-84
2021/08/29 02:18:11;;;;;;;7.55;3.20;;;;;;;;;;5057585;28;20043;-84
2021/08/29 02:20:38;;;;;;;14.05;3.65;;;;;;;;;;5056126;28;20074;-84
2021/08/29 02:23:04;;;;;;;6.97;3.30;;;;;;;;;;5056716;28;20040;-84
2021/08/29 02:25:30;;;;;;;8.73;3.40;;;;;;;;;;5055999;28;20362;-83
2021/08/29 02:27:56;;;;;;;9.38;3.92;;;;;;;;;;5055932;28;20021;-83
2021/08/29 02:30:22;;;;;;;9.00;3.17;;;;;;;;;;5054925;28;20472;-83
2021/08/29 02:32:51;;;;;;;6.00;3.00;;;;;;;;;;5054689;28;20025;-84
2021/08/29 02:35:17;;;;;;;8.93;3.83;;;;;;;;;;5055127;28;20469;-84
2021/08/29 02:37:43;;;;;;;8.27;3.15;;;;;;;;;;5055227;28;20023;-83
2021/08/29 02:40:10;;;;;;;9.05;3.03;;;;;;;;;;5039878;28;20033;-83
2021/08/29 02:42:36;;;;;;;7.25;3.13;;;;;;;;;;5055582;28;20441;-83
2021/08/29 02:45:05;;;;;;;8.93;3.83;;;;;;;;;;5055109;28;20029;-83
2021/08/29 02:47:31;;;;;;;8.63;2.97;;;;;;;;;;5055374;28;20036;-83
2021/08/29 02:49:57;;;;;;;9.02;3.58;;;;;;;;;;5054173;28;21638;-83
2021/08/29 02:52:23;;;;;;;7.65;3.33;;;;;;;;;;5038200;28;20033;-83
2021/08/29 02:54:49;;;;;;;8.52;3.45;;;;;;;;;;5054614;28;20027;-83
2021/08/29 02:57:17;;;;;;;7.38;3.38;;;;;;;;;;5054743;28;20035;-84
2021/08/29 02:59:42;;;;;;;9.23;3.40;;;;;;;;;;5045171;28;20024;-83
2021/08/29 03:02:10;;;;;;;13.05;3.88;;;;;;;;;;5038557;28;20159;-84
2021/08/29 03:04:35;;;;;;;7.72;3.15;;;;;;;;;;5038253;28;20033;-83
2021/08/29 03:07:02;;;;;;;8.07;3.20;;;;;;;;;;5054389;28;20549;-83
2021/08/29 03:09:33;;;;;;;8.00;3.38;;;;;;;;;;5021989;28;20029;-83
2021/08/29 03:12:04;;;;;;;8.20;3.25;;;;;;;;;;5019176;28;20029;-83
2021/08/29 03:14:30;;;;;;;10.18;3.50;;;;;;;;;;5033786;28;20033;-83
2021/08/29 03:16:55;;;;;;;9.65;3.38;;;;;;;;;;5038464;28;20032;-83
2021/08/29 03:19:21;;;;;;;7.97;3.47;;;;;;;;;;5038342;28;20480;-84
2021/08/29 03:21:46;;;;;;;5.82;3.10;;;;;;;;;;5021412;28;20020;-84
2021/08/29 03:24:12;;;;;;;9.02;3.55;;;;;;;;;;5054737;28;20024;-84
2021/08/29 03:26:38;;;;;;;8.38;3.20;;;;;;;;;;5021480;28;20033;-84
2021/08/29 03:29:04;;;;;;;7.70;2.92;;;;;;;;;;5022135;28;20033;-83
2021/08/29 03:31:30;;;;;;;5.97;3.00;;;;;;;;;;5054977;28;20033;-83
2021/08/29 03:33:59;;;;;;;9.23;3.15;;;;;;;;;;5054906;28;20063;-83
2021/08/29 03:36:28;;;;;;;7.20;3.63;;;;;;;;;;5054737;28;20542;-84
2021/08/29 03:38:54;;;;;;;6.75;3.30;;;;;;;;;;5054472;28;20102;-84
2021/08/29 03:41:20;;;;;;;7.55;3.13;;;;;;;;;;5037437;28;20025;-84
2021/08/29 03:43:46;;;;;;;6.65;3.15;;;;;;;;;;5054837;28;20033;-84
2021/08/29 03:46:14;;;;;;;7.55;3.40;;;;;;;;;;5038122;28;20423;-83
2021/08/29 03:48:39;;;;;;;9.45;3.40;;;;;;;;;;5054459;28;20114;-83
2021/08/29 03:51:05;;;;;;;5.82;2.92;;;;;;;;;;5036995;28;20076;-83
2021/08/29 03:53:31;;;;;;;5.72;3.45;;;;;;;;;;5054803;28;20509;-83
2021/08/29 03:55:57;;;;;;;7.70;3.08;;;;;;;;;;5055103;28;20025;-83
2021/08/29 03:58:23;;;;;;;5.53;2.95;;;;;;;;;;5020739;28;20082;-83
2021/08/29 04:00:48;;;;;;;7.47;3.13;;;;;;;;;;5021560;28;20116;-83
2021/08/29 04:03:14;;;;;;;6.30;3.20;;;;;;;;;;5053726;28;20025;-83
2021/08/29 04:05:40;;;;;;;7.18;3.35;;;;;;;;;;5055001;28;20480;-83
2021/08/29 04:08:10;;;;;;;6.85;3.30;;;;;;;;;;5037209;28;20033;-83
2021/08/29 04:10:37;;;;;;;6.15;2.83;;;;;;;;;;5060995;28;20024;-83
2021/08/29 04:13:04;;;;;;;7.47;3.45;;;;;;;;;;5041849;28;21391;-83
2021/08/29 04:15:30;;;;;;;8.45;3.50;;;;;;;;;;5054254;28;20074;-83
2021/08/29 04:17:56;;;;;;;8.48;3.53;;;;;;;;;;5054164;28;20111;-83
2021/08/29 04:20:22;;;;;;;8.65;3.72;;;;;;;;;;5037336;28;20486;-84
2021/08/29 04:22:47;;;;;;;8.55;3.40;;;;;;;;;;5037474;28;20116;-84
2021/08/29 04:25:15;;;;;;;7.88;3.30;;;;;;;;;;5054350;28;20064;-84
2021/08/29 04:27:40;;;;;;;6.13;3.10;;;;;;;;;;5037936;28;20253;-84
2021/08/29 04:30:06;;;;;;;7.40;3.17;;;;;;;;;;5053589;28;20031;-84
2021/08/29 04:32:32;;;;;;;7.57;3.63;;;;;;;;;;5021919;28;20056;-84
2021/08/29 04:34:58;;;;;;;7.72;3.30;;;;;;;;;;5058817;28;20028;-84
2021/08/29 04:37:23;;;;;;;7.10;3.15;;;;;;;;;;5058226;28;20028;-84
2021/08/29 04:39:48;;;;;;;6.57;3.10;;;;;;;;;;5024210;28;20103;-84
2021/08/29 04:42:14;;;;;;;7.35;3.20;;;;;;;;;;5058520;28;20025;-84
2021/08/29 04:44:39;;;;;;;5.60;2.97;;;;;;;;;;5057577;28;20032;-84
2021/08/29 04:47:05;;;;;;;7.90;3.25;;;;;;;;;;5040615;28;20384;-83
2021/08/29 04:49:30;;;;;;;6.80;4.00;;;;;;;;;;5040837;28;20029;-84
2021/08/29 04:51:55;;;;;;;6.18;3.30;;;;;;;;;;5041355;28;20124;-84
2021/08/29 04:54:21;;;;;;;6.10;3.25;;;;;;;;;;5041247;28;20041;-84
2021/08/29 04:56:46;;;;;;;6.82;3.25;;;;;;;;;;5024291;28;20025;-84
2021/08/29 04:59:12;;;;;;;4.90;3.08;;;;;;;;;;5041536;28;20370;-84
2021/08/29 05:01:37;;;;;;;7.93;3.35;;;;;;;;;;5024969;28;20423;-83
2021/08/29 05:04:03;;;;;;;8.45;3.30;;;;;;;;;;5040787;28;20554;-83
2021/08/29 05:06:28;;;;;;;7.28;3.10;;;;;;;;;;5059046;28;20037;-84
2021/08/29 05:08:54;;;;;;;7.32;3.35;;;;;;;;;;5041045;28;20047;-84
2021/08/29 05:11:20;;;;;;;6.88;3.90;;;;;;;;;;5048317;28;20021;-84
2021/08/29 05:13:46;;;;;;;6.22;2.67;;;;;;;;;;5056953;28;20112;-84
2021/08/29 05:16:12;;;;;;;6.80;2.88;;;;;;;;;;5057088;28;20554;-84
2021/08/29 05:18:37;;;;;;;5.32;2.65;;;;;;;;;;5024522;28;20033;-84
2021/08/29 05:21:02;;;;;;;7.60;3.17;;;;;;;;;;5041047;28;20025;-84
2021/08/29 05:23:28;;;;;;;7.65;3.20;;;;;;;;;;5042140;28;20033;-84
2021/08/29 05:25:53;;;;;;;6.00;2.88;;;;;;;;;;5042330;28;20423;-83
2021/08/29 05:28:19;;;;;;;6.57;2.90;;;;;;;;;;5058164;28;20049;-83
2021/08/29 05:30:44;;;;;;;7.20;2.80;;;;;;;;;;5039527;28;20048;-83
2021/08/29 05:33:10;;;;;;;5.78;3.00;;;;;;;;;;5056543;28;20388;-83
2021/08/29 05:35:35;;;;;;;7.57;2.90;;;;;;;;;;5024038;28;20392;-83
2021/08/29 05:38:01;;;;;;;10.35;3.97;;;;;;;;;;5056986;28;20495;-83
2021/08/29 05:40:26;;;;;;;9.35;2.80;;;;;;;;;;5040537;28;20036;-83
2021/08/29 05:42:51;;;;;;;10.15;3.13;;;;;;;;;;5056653;28;20175;-83
2021/08/29 05:45:20;;;;;;;9.07;3.00;;;;;;;;;;5023612;28;20028;-83
2021/08/29 05:47:45;;;;;;;8.48;3.40;;;;;;;;;;5058537;28;20131;-83
2021/08/29 05:50:11;;;;;;;7.82;3.05;;;;;;;;;;5039922;28;20069;-83
2021/08/29 05:52:36;;;;;;;9.00;3.22;;;;;;;;;;5056184;28;20033;-83
2021/08/29 05:55:02;;;;;;;8.27;3.05;;;;;;;;;;5056724;28;20438;-84
2021/08/29 05:57:27;;;;;;;12.55;3.05;;;;;;;;;;5058327;28;20074;-84
2021/08/29 05:59:53;;;;;;;8.68;2.80;;;;;;;;;;5056659;28;20120;-84
2021/08/29 06:02:19;;;;;;;8.15;2.67;;;;;;;;;;5056543;28;20111;-84
2021/08/29 06:04:44;;;;;;;6.72;2.60;;;;;;;;;;5056102;28;20083;-84
2021/08/29 06:07:10;;;;;;;11.48;2.90;;;;;;;;;;5023289;28;20021;-84
2021/08/29 06:09:35;;;;;;;9.63;2.83;;;;;;;;;;5039755;28;20049;-84
2021/08/29 06:12:01;;;;;;;12.93;3.75;;;;;;;;;;5060538;28;20610;-84
2021/08/29 06:14:27;;;;;;;9.80;2.90;;;;;;;;;;5057043;28;20021;-84
2021/08/29 06:16:52;;;;;;;9.10;3.03;;;;;;;;;;5056248;28;20070;-84
2021/08/29 06:19:18;;;;;;;10.52;3.08;;;;;;;;;;5039435;28;20431;-84
2021/08/29 06:21:43;;;;;;;8.38;2.90;;;;;;;;;;5039676;28;20025;-84
2021/08/29 06:24:09;;;;;;;7.53;2.70;;;;;;;;;;5057532;28;20025;-84
2021/08/29 06:26:34;;;;;;;9.23;2.80;;;;;;;;;;5039451;28;20028;-84
2021/08/29 06:29:01;;;;;;;8.38;2.70;;;;;;;;;;5056139;28;20040;-84
2021/08/29 06:31:27;;;;;;;9.55;2.90;;;;;;;;;;5023378;28;20063;-84
2021/08/29 06:33:52;;;;;;;7.68;3.10;;;;;;;;;;5039480;28;20439;-84
2021/08/29 06:36:17;;;;;;;10.27;2.90;;;;;;;;;;5022975;28;20105;-84
2021/08/29 06:38:43;;;;;;;7.15;2.80;;;;;;;;;;5022694;28;20028;-84
2021/08/29 06:41:08;;;;;;;8.02;3.20;;;;;;;;;;5055283;28;20021;-84
2021/08/29 06:43:34;;;;;;;11.88;3.10;;;;;;;;;;5038486;28;20032;-84
2021/08/29 06:46:01;;;;;;;7.63;2.60;;;;;;;;;;5055192;28;20025;-83
2021/08/29 06:48:26;;;;;;;8.25;2.80;;;;;;;;;;5038843;28;20093;-83
2021/08/29 06:50:51;;;;;;;7.55;2.50;;;;;;;;;;5054509;28;20131;-83
2021/08/29 06:53:17;;;;;;;8.85;2.90;;;;;;;;;;5022695;28;20066;-83
2021/08/29 06:55:42;;;;;;;9.75;2.70;;;;;;;;;;5054651;28;20021;-83
2021/08/29 06:58:08;;;;;;;8.63;2.65;;;;;;;;;;5038077;28;20091;-83
2021/08/29 07:00:33;;;;;;;10.00;2.80;;;;;;;;;;5021326;28;20086;-83
2021/08/29 07:02:59;;;;;;;12.10;2.60;;;;;;;;;;5056452;28;20032;-83
2021/08/29 07:05:26;;;;;;;12.80;2.58;;;;;;;;;;5038711;28;20552;-84
2021/08/29 07:07:51;;;;;;;8.80;2.50;;;;;;;;;;5039969;28;20044;-84
2021/08/29 07:10:17;;;;;;;9.90;2.55;;;;;;;;;;5038638;28;20036;-83
2021/08/29 07:12:42;;;;;;;9.25;2.60;;;;;;;;;;5021793;28;20032;-83
2021/08/29 07:15:07;;;;;;;6.85;2.47;;;;;;;;;;5039240;28;20029;-84
2021/08/29 07:17:33;;;;;;;7.22;2.55;;;;;;;;;;5039425;28;20025;-84
2021/08/29 07:19:59;;;;;;;9.63;2.60;;;;;;;;;;5039734;28;20063;-84
2021/08/29 07:22:24;;;;;;;12.00;3.05;;;;;;;;;;5039193;28;20112;-84
2021/08/29 07:24:49;;;;;;;9.40;2.55;;;;;;;;;;5022676;28;20056;-84
2021/08/29 07:27:15;;;;;;;9.50;2.70;;;;;;;;;;5038786;28;20388;-84
2021/08/29 07:29:41;;;;;;;11.75;2.83;;;;;;;;;;5054909;28;20032;-84
2021/08/29 07:32:07;;;;;;;7.53;2.70;;;;;;;;;;5040332;28;20460;-84
2021/08/29 07:34:34;;;;;;;8.57;2.53;;;;;;;;;;5056947;28;20053;-83
2021/08/29 07:36:59;;;;;;;11.10;2.72;;;;;;;;;;5039635;28;20095;-83
2021/08/29 07:39:25;;;;;;;7.88;2.50;;;;;;;;;;5039585;28;20507;-83
2021/08/29 07:41:50;;;;;;;11.65;2.75;;;;;;;;;;5022034;28;20039;-83
2021/08/29 07:44:16;;;;;;;6.82;2.40;;;;;;;;;;5039234;28;20029;-83
2021/08/29 07:46:41;;;;;;;10.90;2.92;;;;;;;;;;5039407;28;20116;-83
2021/08/29 07:49:07;;;;;;;7.60;2.55;;;;;;;;;;5056095;28;20499;-83
2021/08/29 07:51:32;;;;;;;11.95;2.88;;;;;;;;;;5037417;28;20076;-83
2021/08/29 07:53:58;;;;;;;12.20;2.80;;;;;;;;;;5055339;28;20040;-83
2021/08/29 07:56:23;;;;;;;10.75;2.38;;;;;;;;;;5022836;28;20036;-83
2021/08/29 07:58:48;;;;;;;7.10;2.60;;;;;;;;;;5038767;28;20055;-83
2021/08/29 08:01:14;;;;;;;10.85;2.55;;;;;;;;;;5054373;28;20021;-83
2021/08/29 08:03:39;;;;;;;9.32;2.85;;;;;;;;;;5038534;28;20033;-83
2021/08/29 08:06:06;;;;;;;9.73;2.78;;;;;;;;;;5037749;28;20021;-83
2021/08/29 08:08:31;;;;;;;9.02;2.22;;;;;;;;;;5059021;28;20128;-83
2021/08/29 08:10:57;;;;;;;9.38;2.60;;;;;;;;;;5061191;28;20056;-83
2021/08/29 08:13:22;;;;;;;11.02;2.53;;;;;;;;;;5043695;28;20029;-84
2021/08/29 08:15:48;;;;;;;9.75;2.67;;;;;;;;;;5059310;28;20032;-84
2021/08/29 08:18:13;;;;;;;12.50;2.55;;;;;;;;;;5042910;28;20033;-84
2021/08/29 08:20:39;;;;;;;9.18;2.30;;;;;;;;;;5060153;28;20460;-84
2021/08/29 08:23:04;;;;;;;10.45;2.70;;;;;;;;;;5042795;28;20017;-84
2021/08/29 08:25:30;;;;;;;9.13;2.28;;;;;;;;;;5044358;28;20071;-84
2021/08/29 08:27:55;;;;;;;10.30;3.10;;;;;;;;;;5044716;28;20025;-83
2021/08/29 08:30:20;;;;;;;8.35;2.40;;;;;;;;;;5042968;28;20082;-83
2021/08/29 08:32:46;;;;;;;10.45;2.42;;;;;;;;;;5061888;28;20025;-83
2021/08/29 08:35:11;;;;;;;8.98;2.30;;;;;;;;;;5044523;28;20396;-84
2021/08/29 08:37:37;;;;;;;9.48;2.72;;;;;;;;;;5061615;28;20465;-84
2021/08/29 08:40:04;;;;;;;10.05;2.72;;;;;;;;;;5062416;28;20464;-84
2021/08/29 08:42:29;;;;;;;9.85;2.55;;;;;;;;;;5061545;28;20029;-84
2021/08/29 08:44:55;;;;;;;10.18;3.22;;;;;;;;;;5061855;28;20143;-84
2021/08/29 08:47:21;;;;;;;10.27;2.70;;;;;;;;;;5044219;28;20029;-84
2021/08/29 08:49:48;;;;;;;8.10;2.30;;;;;;;;;;5044279;28;20029;-83
2021/08/29 08:52:21;;;;;;;10.50;2.58;;;;;;;;;;5059708;28;20053;-84
2021/08/29 08:54:47;;;;;;;9.43;2.70;;;;;;;;;;5061378;28;20033;-83
2021/08/29 08:57:20;;;;;;;6.85;2.53;;;;;;;;;;5060857;28;20032;-83
2021/08/29 08:59:46;;;;;;;6.88;2.40;;;;;;;;;;5043111;28;20040;-83
2021/08/29 09:02:13;;;;;;;10.07;2.45;;;;;;;;;;5060592;28;20186;-83
2021/08/29 09:04:40;;;;;;;7.25;2.40;;;;;;;;;;5058747;28;20058;-84
2021/08/29 09:07:06;;;;;;;9.40;2.40;;;;;;;;;;5058475;28;20036;-84
2021/08/29 09:09:35;;;;;;;7.88;2.22;;;;;;;;;;5059543;28;20029;-83
2021/08/29 09:12:00;;;;;;;8.07;2.30;;;;;;;;;;5058890;28;20115;-83
2021/08/29 09:14:38;;;;;;;9.95;2.40;;;;;;;;;;5041722;28;20064;-83
2021/08/29 09:17:26;;;;;;;8.30;2.78;;;;;;;;;;5044801;28;20024;-83
2021/08/29 09:20:12;;;;;;;7.30;2.40;;;;;;;;;;5057286;28;20048;-83
2021/08/29 09:22:39;;;;;;;6.82;2.67;;;;;;;;;;5042752;28;20125;-83
2021/08/29 09:25:08;;;;;;;8.43;2.40;;;;;;;;;;5056888;28;20029;-82
2021/08/29 09:27:33;;;;;;;8.40;2.47;;;;;;;;;;5056898;28;20078;-82
2021/08/29 09:30:02;;;;;;;9.05;2.90;;;;;;;;;;5057163;28;20024;-81
2021/08/29 09:32:29;;;;;;;6.88;2.30;;;;;;;;;;5058150;28;20387;-81
2021/08/29 09:35:02;;;;;;;9.38;2.50;;;;;;;;;;5058137;28;20017;-81
2021/08/29 09:37:29;;;;;;;9.43;2.30;;;;;;;;;;5041295;28;20033;-80
2021/08/29 09:40:12;;;;;;;8.65;2.33;;;;;;;;;;5056971;28;20037;-81
2021/08/29 09:42:45;;;;;;;7.33;2.57;;;;;;;;;;5057154;28;20070;-81
2021/08/29 09:45:20;;;;;;;7.32;2.80;;;;;;;;;;5057000;28;20269;-80
2021/08/29 09:47:46;;;;;;;9.88;2.75;;;;;;;;;;5057933;28;20025;-80
2021/08/29 09:50:13;;;;;;;11.60;2.53;;;;;;;;;;5056250;28;20033;-80
2021/08/29 09:52:39;;;;;;;8.93;2.53;;;;;;;;;;5039626;28;20416;-80
2021/08/29 09:55:05;;;;;;;7.35;2.33;;;;;;;;;;5058718;28;20027;-80
2021/08/29 09:57:32;;;;;;;10.23;2.30;;;;;;;;;;5058937;28;20458;-80
2021/08/29 09:59:57;;;;;;;7.53;2.33;;;;;;;;;;5056178;28;20025;-80
2021/08/29 10:02:28;;;;;;;6.68;2.08;;;;;;;;;;5023107;28;20114;-80
2021/08/29 10:05:17;;;;;;;10.48;2.47;;;;;;;;;;5058053;28;20029;-80
2021/08/29 10:08:08;;;;;;;10.13;2.10;;;;;;;;;;5040855;28;20040;-80
2021/08/29 10:10:37;;;;;;;10.68;2.47;;;;;;;;;;5058237;28;20465;-80
2021/08/29 10:13:03;;;;;;;8.05;2.42;;;;;;;;;;5057061;28;20083;-80
2021/08/29 10:15:30;;;;;;;12.25;2.53;;;;;;;;;;5056698;28;20033;-80
2021/08/29 10:17:59;;;;;;;9.70;2.30;;;;;;;;;;5056661;28;20101;-80
2021/08/29 10:20:25;;;;;;;8.57;2.50;;;;;;;;;;5055925;28;20025;-80
2021/08/29 10:22:51;;;;;;;9.25;2.78;;;;;;;;;;5056121;28;20037;-80
2021/08/29 10:25:18;;;;;;;7.47;2.30;;;;;;;;;;5055634;28;20028;-80
2021/08/29 10:28:06;;;;;;;7.07;2.30;;;;;;;;;;5054969;28;20039;-80
2021/08/29 10:30:35;;;;;;;7.15;2.20;;;;;;;;;;5055331;28;20036;-80
2021/08/29 10:33:04;;;;;;;6.82;2.33;;;;;;;;;;5054839;28;20037;-80
2021/08/29 10:35:31;;;;;;;9.65;2.85;;;;;;;;;;5044598;28;20020;-80
2021/08/29 10:37:57;;;;;;;9.43;2.65;;;;;;;;;;5056137;28;20025;-80
2021/08/29 10:40:23;;;;;;;14.00;2.70;;;;;;;;;;5055021;28;20063;-80
2021/08/29 10:42:49;;;;;;;13.82;2.58;;;;;;;;;;5054706;28;20032;-80
2021/08/29 10:45:14;;;;;;;9.15;2.47;;;;;;;;;;5055745;28;20095;-80
2021/08/29 10:47:43;;;;;;;8.85;2.30;;;;;;;;;;5054228;28;20049;-80
2021/08/29 10:50:12;;;;;;;8.98;2.20;;;;;;;;;;5054598;28;20021;-80
2021/08/29 10:52:38;;;;;;;12.38;2.38;;;;;;;;;;5055993;28;20045;-80
2021/08/29 10:55:09;;;;;;;10.82;2.42;;;;;;;;;;5055024;28;20387;-80
2021/08/29 10:57:39;;;;;;;9.48;2.20;;;;;;;;;;5056456;28;20033;-80
2021/08/29 11:00:06;;;;;;;7.72;2.55;;;;;;;;;;5038524;28;20028;-80
2021/08/29 11:02:38;;;;;;;9.52;2.42;;;;;;;;;;5054410;28;20126;-80
2021/08/29 11:05:05;;;;;;;9.27;3.00;;;;;;;;;;5053815;28;20377;-80
2021/08/29 11:07:39;;;;;;;10.10;2.80;;;;;;;;;;5054790;28;20067;-80
2021/08/29 11:10:06;;;;;;;13.60;2.75;;;;;;;;;;5057954;28;20029;-80
2021/08/29 11:12:33;;;;;;;9.90;2.53;;;;;;;;;;5059964;28;20047;-80
2021/08/29 11:15:00;;;;;;;8.55;2.60;;;;;;;;;;5054063;28;20032;-80
2021/08/29 11:17:27;;;;;;;10.40;2.60;;;;;;;;;;5054800;28;20033;-80
2021/08/29 11:20:11;;;;;;;6.85;2.22;;;;;;;;;;5055443;28;20031;-80
2021/08/29 11:22:48;;;;;;;11.38;2.22;;;;;;;;;;5054939;28;20433;-80
2021/08/29 11:25:24;;;;;;;7.35;2.38;;;;;;;;;;5054604;28;20025;-80
2021/08/29 11:28:01;;;;;;;7.50;2.63;;;;;;;;;;5055750;28;20056;-80
2021/08/29 11:30:36;;;;;;;9.18;2.95;;;;;;;;;;5037696;28;20369;-80
2021/08/29 11:33:07;;;;;;;11.25;3.08;;;;;;;;;;5054915;28;20074;-81
2021/08/29 11:35:34;;;;;;;10.93;3.72;;;;;;;;;;5038365;28;20108;-80
2021/08/29 11:38:29;;;;;;;13.95;3.00;;;;;;;;;;5054808;28;20507;-80
2021/08/29 11:40:56;;;;;;;12.55;2.95;;;;;;;;;;5056032;28;20405;-81
2021/08/29 11:43:28;;;;;;;10.43;3.00;;;;;;;;;;5054623;28;20119;-80
2021/08/29 11:46:12;;;;;;;14.45;3.03;;;;;;;;;;5054753;28;20025;-80
2021/08/29 11:48:50;;;;;;;7.68;2.80;;;;;;;;;;5055273;28;20032;-80
2021/08/29 11:51:32;;;;;;;8.63;2.70;;;;;;;;;;5054403;28;20053;-80
2021/08/29 11:54:01;;;;;;;10.35;2.40;;;;;;;;;;5056073;28;20447;-80
2021/08/29 11:56:29;;;;;;;10.60;2.55;;;;;;;;;;5054909;28;20072;-80
2021/08/29 11:58:56;;;;;;;10.57;2.70;;;;;;;;;;5055592;28;20075;-80
2021/08/29 12:01:23;;;;;;;6.78;2.55;;;;;;;;;;5054952;28;20032;-81
2021/08/29 12:03:53;;;;;;;8.25;2.90;;;;;;;;;;5038774;28;20476;-81
2021/08/29 12:06:46;;;;;;;10.13;2.90;;;;;;;;;;5054444;28;20060;-81
2021/08/29 12:09:22;;;;;;;12.90;2.80;;;;;;;;;;5057592;28;20045;-81
2021/08/29 12:11:48;;;;;;;7.78;2.58;;;;;;;;;;5055195;28;20032;-80
2021/08/29 12:14:22;;;;;;;9.90;3.15;;;;;;;;;;5039046;28;20055;-80
2021/08/29 12:16:54;;;;;;;8.80;2.80;;;;;;;;;;5056154;28;20052;-81
2021/08/29 12:19:24;;;;;;;10.43;2.85;;;;;;;;;;5054830;28;20017;-81
2021/08/29 12:21:51;;;;;;;11.73;3.50;;;;;;;;;;5054648;28;20108;-81
2021/08/29 12:24:24;;;;;;;13.70;3.50;;;;;;;;;;5055204;28;20362;-81
2021/08/29 12:27:11;;;;;;;9.35;2.97;;;;;;;;;;5053784;28;20024;-81
2021/08/29 12:29:47;;;;;;;9.73;2.80;;;;;;;;;;5054034;28;20029;-81
2021/08/29 12:32:16;;;;;;;9.13;2.80;;;;;;;;;;5053894;28;20107;-81
2021/08/29 12:34:42;;;;;;;12.43;3.40;;;;;;;;;;5055704;28;20020;-81
2021/08/29 12:37:11;;;;;;;10.38;3.35;;;;;;;;;;5055418;28;20055;-81
2021/08/29 12:39:37;;;;;;;11.13;3.47;;;;;;;;;;5055253;28;20111;-81
2021/08/29 12:42:20;;;;;;;9.48;3.30;;;;;;;;;;5037019;28;20515;-81
2021/08/29 12:44:47;;;;;;;9.23;2.90;;;;;;;;;;5053491;28;20031;-81
2021/08/29 12:47:13;;;;;;;10.02;3.60;;;;;;;;;;5053394;28;20041;-81
2021/08/29 12:49:39;;;;;;;8.75;2.90;;;;;;;;;;5036737;28;20037;-81
2021/08/29 12:52:07;;;;;;;11.38;2.92;;;;;;;;;;5052681;28;20053;-81
2021/08/29 12:54:33;;;;;;;8.57;2.75;;;;;;;;;;5039974;28;20044;-81
2021/08/29 12:56:59;;;;;;;7.57;2.85;;;;;;;;;;5046643;28;20035;-80
2021/08/29 12:59:28;;;;;;;8.13;3.22;;;;;;;;;;5058664;28;20460;-80
2021/08/29 13:01:57;;;;;;;8.30;3.42;;;;;;;;;;5059824;28;20070;-80
2021/08/29 13:04:24;;;;;;;5.47;2.90;;;;;;;;;;5058596;28;20033;-80
2021/08/29 13:07:06;;;;;;;6.10;2.92;;;;;;;;;;5058319;28;20029;-80
2021/08/29 13:09:34;;;;;;;12.85;3.70;;;;;;;;;;5058994;28;20108;-80
2021/08/29 13:12:05;;;;;;;6.80;3.63;;;;;;;;;;5062258;28;20061;-80
2021/08/29 13:14:33;;;;;;;9.15;3.95;;;;;;;;;;5059231;28;20384;-81
2021/08/29 13:17:20;;;;;;;7.75;3.97;;;;;;;;;;5042020;28;20119;-81
2021/08/29 13:20:07;;;;;;;8.35;3.33;;;;;;;;;;5056812;28;20111;-81
2021/08/29 13:22:38;;;;;;;7.68;3.70;;;;;;;;;;5056316;28;20091;-81
2021/08/29 13:25:21;;;;;;;7.35;3.13;;;;;;;;;;5057829;28;20057;-81
2021/08/29 13:27:49;;;;;;;11.05;3.75;;;;;;;;;;5057759;28;20021;-81
2021/08/29 13:30:27;;;;;;;6.03;3.28;;;;;;;;;;5042424;28;20024;-81
2021/08/29 13:32:53;;;;;;;8.95;2.95;;;;;;;;;;5057243;28;20032;-81
2021/08/29 13:35:21;;;;;;;6.38;3.00;;;;;;;;;;5055789;28;20029;-81
2021/08/29 13:37:49;;;;;;;6.78;3.10;;;;;;;;;;5056840;28;20025;-81
2021/08/29 13:40:18;;;;;;;5.88;3.22;;;;;;;;;;5057503;28;20025;-81
2021/08/29 13:42:58;;;;;;;7.13;3.75;;;;;;;;;;5056466;28;20380;-81
2021/08/29 13:45:29;;;;;;;7.20;3.13;;;;;;;;;;5057255;28;20028;-81
2021/08/29 13:47:56;;;;;;;7.22;3.03;;;;;;;;;;5055554;28;20091;-81
2021/08/29 13:50:23;;;;;;;8.98;3.05;;;;;;;;;;5022298;28;20039;-81
2021/08/29 13:53:04;;;;;;;6.30;2.80;;;;;;;;;;5054638;28;20365;-81
2021/08/29 13:55:32;;;;;;;6.43;3.00;;;;;;;;;;5055142;28;20025;-80
2021/08/29 13:57:58;;;;;;;6.88;2.67;;;;;;;;;;5056797;28;20031;-81
2021/08/29 14:00:23;;;;;;;5.75;2.80;;;;;;;;;;5057133;28;20103;-80
2021/08/29 14:02:48;;;;;;;6.25;2.80;;;;;;;;;;5058238;28;20028;-80
2021/08/29 14:05:14;;;;;;;4.63;2.45;;;;;;;;;;5023402;28;20477;-81
2021/08/29 14:07:40;;;;;;;6.38;2.60;;;;;;;;;;5057467;28;20040;-81
2021/08/29 14:10:06;;;;;;;4.93;2.65;;;;;;;;;;5056187;28;20033;-81
2021/08/29 14:12:32;;;;;;;6.22;2.85;;;;;;;;;;5056059;28;20115;-80
2021/08/29 14:14:57;;;;;;;6.40;3.13;;;;;;;;;;5057063;28;20097;-81
2021/08/29 14:17:23;;;;;;;5.18;3.25;;;;;;;;;;5037903;28;20096;-81
2021/08/29 14:19:48;;;;;;;6.72;3.25;;;;;;;;;;5022321;28;20025;-81
2021/08/29 14:22:14;;;;;;;6.57;3.40;;;;;;;;;;5055951;28;20020;-81
2021/08/29 14:24:39;;;;;;;9.40;3.75;;;;;;;;;;5058322;28;20067;-81
2021/08/29 14:27:05;;;;;;;7.93;3.42;;;;;;;;;;5056840;28;20028;-81
2021/08/29 14:29:31;;;;;;;7.95;3.42;;;;;;;;;;5055600;28;20091;-80
2021/08/29 14:31:58;;;;;;;6.68;3.78;;;;;;;;;;5038825;28;20029;-81
2021/08/29 14:34:24;;;;;;;6.28;3.58;;;;;;;;;;5022537;28;20033;-81
2021/08/29 14:36:49;;;;;;;7.25;3.65;;;;;;;;;;5039243;28;20442;-81
2021/08/29 14:39:15;;;;;;;7.78;3.42;;;;;;;;;;5055947;28;20029;-80
2021/08/29 14:41:40;;;;;;;8.50;3.45;;;;;;;;;;5054185;28;20054;-80
2021/08/29 14:44:06;;;;;;;6.28;3.05;;;;;;;;;;5038097;28;20025;-81
2021/08/29 14:46:31;;;;;;;5.25;3.05;;;;;;;;;;5037926;28;20033;-81